Terminal Aerodrome Forecast
Issued by NWS

Home | Current Version | Previous Version | Graphics & Text | Print | Product List | Glossary On
Versions: 1 2 3 4 5 6 7 8 9 10 11 12 13 14 15
000
FTUS43 KBIS 251134
TAFJMS
TAF
KJMS 251134Z 2512/2612 14017G27KT P6SM BKN100
     FM251500 17017G27KT P6SM BKN100
     FM252100 22016G25KT P6SM SCT130
     FM260200 24009KT P6SM SCT200=

USA.gov is the U.S. government's official web portal to all federal, state and local government web resources and services.